sensor_id;sensor_type;location;lat;lon;timestamp;P1;durP1;ratioP1;P2;durP2;ratioP2
12958;SDS011;6544;51.666;6.634;2023-08-07T00:02:07;9.32;;;2.70;;
12958;SDS011;6544;51.666;6.634;2023-08-07T00:04:33;10.23;;;2.92;;
12958;SDS011;6544;51.666;6.634;2023-08-07T00:07:00;8.32;;;2.95;;
12958;SDS011;6544;51.666;6.634;2023-08-07T00:09:27;10.25;;;2.90;;
12958;SDS011;6544;51.666;6.634;2023-08-07T00:11:54;11.82;;;3.33;;
12958;SDS011;6544;51.666;6.634;2023-08-07T00:14:21;12.15;;;3.03;;
12958;SDS011;6544;51.666;6.634;2023-08-07T00:16:49;7.70;;;2.97;;
12958;SDS011;6544;51.666;6.634;2023-08-07T00:19:19;10.88;;;3.08;;
12958;SDS011;6544;51.666;6.634;2023-08-07T00:21:46;12.50;;;2.90;;
12958;SDS011;6544;51.666;6.634;2023-08-07T00:24:13;10.93;;;2.92;;
12958;SDS011;6544;51.666;6.634;2023-08-07T00:26:39;10.15;;;2.38;;
12958;SDS011;6544;51.666;6.634;2023-08-07T00:29:06;12.13;;;2.97;;
12958;SDS011;6544;51.666;6.634;2023-08-07T00:31:33;10.73;;;2.85;;
12958;SDS011;6544;51.666;6.634;2023-08-07T00:34:02;11.38;;;2.63;;
12958;SDS011;6544;51.666;6.634;2023-08-07T00:36:29;7.95;;;2.83;;
12958;SDS011;6544;51.666;6.634;2023-08-07T00:38:59;7.93;;;2.60;;
12958;SDS011;6544;51.666;6.634;2023-08-07T00:41:28;9.55;;;2.60;;
12958;SDS011;6544;51.666;6.634;2023-08-07T00:43:54;10.10;;;2.47;;
12958;SDS011;6544;51.666;6.634;2023-08-07T00:46:21;8.75;;;2.85;;
12958;SDS011;6544;51.666;6.634;2023-08-07T00:48:48;9.35;;;3.17;;
12958;SDS011;6544;51.666;6.634;2023-08-07T00:51:16;12.75;;;3.50;;
12958;SDS011;6544;51.666;6.634;2023-08-07T00:53:43;13.05;;;3.28;;
12958;SDS011;6544;51.666;6.634;2023-08-07T00:56:11;8.68;;;2.75;;
12958;SDS011;6544;51.666;6.634;2023-08-07T00:58:38;13.25;;;3.15;;
12958;SDS011;6544;51.666;6.634;2023-08-07T01:01:05;11.15;;;3.10;;
12958;SDS011;6544;51.666;6.634;2023-08-07T01:03:35;9.27;;;2.85;;
12958;SDS011;6544;51.666;6.634;2023-08-07T01:06:05;13.50;;;2.90;;
12958;SDS011;6544;51.666;6.634;2023-08-07T01:08:34;7.43;;;2.58;;
12958;SDS011;6544;51.666;6.634;2023-08-07T01:11:07;9.82;;;2.45;;
12958;SDS011;6544;51.666;6.634;2023-08-07T01:13:45;10.60;;;2.72;;
12958;SDS011;6544;51.666;6.634;2023-08-07T01:16:17;5.97;;;2.40;;
12958;SDS011;6544;51.666;6.634;2023-08-07T01:18:48;7.68;;;2.47;;
12958;SDS011;6544;51.666;6.634;2023-08-07T01:21:19;6.90;;;2.23;;
12958;SDS011;6544;51.666;6.634;2023-08-07T01:23:47;9.77;;;2.20;;
12958;SDS011;6544;51.666;6.634;2023-08-07T01:26:15;7.15;;;2.13;;
12958;SDS011;6544;51.666;6.634;2023-08-07T01:28:46;9.88;;;2.47;;
12958;SDS011;6544;51.666;6.634;2023-08-07T01:31:18;5.00;;;1.77;;
12958;SDS011;6544;51.666;6.634;2023-08-07T01:33:50;6.47;;;2.00;;
12958;SDS011;6544;51.666;6.634;2023-08-07T01:36:25;6.13;;;2.10;;
12958;SDS011;6544;51.666;6.634;2023-08-07T01:38:56;3.97;;;1.80;;
12958;SDS011;6544;51.666;6.634;2023-08-07T01:41:25;4.07;;;1.60;;
12958;SDS011;6544;51.666;6.634;2023-08-07T01:43:53;4.10;;;1.90;;
12958;SDS011;6544;51.666;6.634;2023-08-07T01:46:20;3.80;;;1.75;;
12958;SDS011;6544;51.666;6.634;2023-08-07T01:48:47;5.72;;;1.83;;
12958;SDS011;6544;51.666;6.634;2023-08-07T01:51:14;5.30;;;2.05;;
12958;SDS011;6544;51.666;6.634;2023-08-07T01:53:41;6.55;;;1.98;;
12958;SDS011;6544;51.666;6.634;2023-08-07T01:56:09;4.25;;;2.03;;
12958;SDS011;6544;51.666;6.634;2023-08-07T01:58:36;8.25;;;2.10;;
12958;SDS011;6544;51.666;6.634;2023-08-07T02:01:03;6.13;;;2.08;;
12958;SDS011;6544;51.666;6.634;2023-08-07T02:03:30;4.70;;;1.90;;
12958;SDS011;6544;51.666;6.634;2023-08-07T02:05:56;7.70;;;2.88;;
12958;SDS011;6544;51.666;6.634;2023-08-07T02:08:23;6.28;;;2.30;;
12958;SDS011;6544;51.666;6.634;2023-08-07T02:10:50;8.00;;;2.47;;
12958;SDS011;6544;51.666;6.634;2023-08-07T02:13:18;7.72;;;2.47;;
12958;SDS011;6544;51.666;6.634;2023-08-07T02:15:45;6.20;;;2.60;;
12958;SDS011;6544;51.666;6.634;2023-08-07T02:18:12;7.90;;;2.63;;
12958;SDS011;6544;51.666;6.634;2023-08-07T02:20:39;7.40;;;2.50;;
12958;SDS011;6544;51.666;6.634;2023-08-07T02:23:06;12.23;;;3.08;;
12958;SDS011;6544;51.666;6.634;2023-08-07T02:25:32;7.93;;;2.72;;
12958;SDS011;6544;51.666;6.634;2023-08-07T02:28:00;9.73;;;3.03;;
12958;SDS011;6544;51.666;6.634;2023-08-07T02:30:28;9.85;;;3.20;;
12958;SDS011;6544;51.666;6.634;2023-08-07T02:32:56;9.90;;;3.08;;
12958;SDS011;6544;51.666;6.634;2023-08-07T02:35:23;9.57;;;2.83;;
12958;SDS011;6544;51.666;6.634;2023-08-07T02:37:50;12.98;;;3.38;;
12958;SDS011;6544;51.666;6.634;2023-08-07T02:40:20;10.80;;;3.40;;
12958;SDS011;6544;51.666;6.634;2023-08-07T02:42:46;11.70;;;3.20;;
12958;SDS011;6544;51.666;6.634;2023-08-07T02:45:13;10.95;;;3.20;;
12958;SDS011;6544;51.666;6.634;2023-08-07T02:47:43;12.40;;;3.55;;
12958;SDS011;6544;51.666;6.634;2023-08-07T02:50:10;9.20;;;3.30;;
12958;SDS011;6544;51.666;6.634;2023-08-07T02:52:36;15.55;;;3.72;;
12958;SDS011;6544;51.666;6.634;2023-08-07T02:55:04;12.88;;;3.40;;
12958;SDS011;6544;51.666;6.634;2023-08-07T02:57:31;12.57;;;3.65;;
12958;SDS011;6544;51.666;6.634;2023-08-07T02:59:58;13.75;;;3.88;;
12958;SDS011;6544;51.666;6.634;2023-08-07T03:02:25;10.95;;;3.10;;
12958;SDS011;6544;51.666;6.634;2023-08-07T03:04:53;14.32;;;3.95;;
12958;SDS011;6544;51.666;6.634;2023-08-07T03:07:20;12.23;;;3.60;;
12958;SDS011;6544;51.666;6.634;2023-08-07T03:09:47;12.45;;;3.65;;
12958;SDS011;6544;51.666;6.634;2023-08-07T03:12:14;11.63;;;3.30;;
12958;SDS011;6544;51.666;6.634;2023-08-07T03:14:41;13.40;;;3.53;;
12958;SDS011;6544;51.666;6.634;2023-08-07T03:17:07;12.68;;;3.53;;
12958;SDS011;6544;51.666;6.634;2023-08-07T03:19:34;15.88;;;3.85;;
12958;SDS011;6544;51.666;6.634;2023-08-07T03:22:03;13.77;;;3.95;;
12958;SDS011;6544;51.666;6.634;2023-08-07T03:24:30;15.88;;;3.50;;
12958;SDS011;6544;51.666;6.634;2023-08-07T03:26:57;13.32;;;3.60;;
12958;SDS011;6544;51.666;6.634;2023-08-07T03:29:25;14.55;;;3.60;;
12958;SDS011;6544;51.666;6.634;2023-08-07T03:31:52;9.05;;;2.90;;
12958;SDS011;6544;51.666;6.634;2023-08-07T03:34:19;10.95;;;3.50;;
12958;SDS011;6544;51.666;6.634;2023-08-07T03:36:46;15.00;;;3.33;;
12958;SDS011;6544;51.666;6.634;2023-08-07T03:39:14;10.93;;;3.10;;
12958;SDS011;6544;51.666;6.634;2023-08-07T03:41:41;12.63;;;3.50;;
12958;SDS011;6544;51.666;6.634;2023-08-07T03:44:08;20.17;;;4.30;;
12958;SDS011;6544;51.666;6.634;2023-08-07T03:46:34;16.60;;;3.58;;
12958;SDS011;6544;51.666;6.634;2023-08-07T03:49:01;13.52;;;3.83;;
12958;SDS011;6544;51.666;6.634;2023-08-07T03:51:28;8.38;;;3.17;;
12958;SDS011;6544;51.666;6.634;2023-08-07T03:53:57;13.30;;;4.10;;
12958;SDS011;6544;51.666;6.634;2023-08-07T03:56:25;15.07;;;4.00;;
12958;SDS011;6544;51.666;6.634;2023-08-07T03:58:52;16.38;;;4.15;;
12958;SDS011;6544;51.666;6.634;2023-08-07T04:01:19;13.50;;;3.53;;
12958;SDS011;6544;51.666;6.634;2023-08-07T04:03:46;12.07;;;3.53;;
12958;SDS011;6544;51.666;6.634;2023-08-07T04:06:13;11.85;;;3.45;;
12958;SDS011;6544;51.666;6.634;2023-08-07T04:08:41;12.15;;;3.33;;
12958;SDS011;6544;51.666;6.634;2023-08-07T04:11:08;12.65;;;3.40;;
12958;SDS011;6544;51.666;6.634;2023-08-07T04:13:37;12.10;;;3.20;;
12958;SDS011;6544;51.666;6.634;2023-08-07T04:16:04;11.07;;;3.47;;
12958;SDS011;6544;51.666;6.634;2023-08-07T04:18:31;9.75;;;3.45;;
12958;SDS011;6544;51.666;6.634;2023-08-07T04:20:58;12.25;;;3.92;;
12958;SDS011;6544;51.666;6.634;2023-08-07T04:23:25;10.63;;;3.80;;
12958;SDS011;6544;51.666;6.634;2023-08-07T04:25:52;11.85;;;3.47;;
12958;SDS011;6544;51.666;6.634;2023-08-07T04:28:20;18.25;;;3.92;;
12958;SDS011;6544;51.666;6.634;2023-08-07T04:30:50;16.27;;;4.32;;
12958;SDS011;6544;51.666;6.634;2023-08-07T04:33:17;14.15;;;3.75;;
12958;SDS011;6544;51.666;6.634;2023-08-07T04:35:44;10.30;;;3.65;;
12958;SDS011;6544;51.666;6.634;2023-08-07T04:38:11;10.25;;;3.67;;
12958;SDS011;6544;51.666;6.634;2023-08-07T04:40:43;10.65;;;3.90;;
12958;SDS011;6544;51.666;6.634;2023-08-07T04:43:11;14.93;;;4.07;;
12958;SDS011;6544;51.666;6.634;2023-08-07T04:45:38;10.90;;;3.55;;
12958;SDS011;6544;51.666;6.634;2023-08-07T04:48:06;11.32;;;3.40;;
12958;SDS011;6544;51.666;6.634;2023-08-07T04:50:33;9.00;;;3.53;;
12958;SDS011;6544;51.666;6.634;2023-08-07T04:53:00;12.32;;;3.90;;
12958;SDS011;6544;51.666;6.634;2023-08-07T04:55:28;14.98;;;4.18;;
12958;SDS011;6544;51.666;6.634;2023-08-07T04:57:58;15.77;;;4.03;;
12958;SDS011;6544;51.666;6.634;2023-08-07T05:00:25;12.05;;;3.90;;
12958;SDS011;6544;51.666;6.634;2023-08-07T05:02:53;11.98;;;3.97;;
12958;SDS011;6544;51.666;6.634;2023-08-07T05:05:21;13.65;;;3.88;;
12958;SDS011;6544;51.666;6.634;2023-08-07T05:07:48;13.98;;;4.03;;
12958;SDS011;6544;51.666;6.634;2023-08-07T05:10:15;13.90;;;4.10;;
12958;SDS011;6544;51.666;6.634;2023-08-07T05:12:42;19.73;;;4.35;;
12958;SDS011;6544;51.666;6.634;2023-08-07T05:15:09;13.32;;;4.07;;
12958;SDS011;6544;51.666;6.634;2023-08-07T05:17:36;13.98;;;4.20;;
12958;SDS011;6544;51.666;6.634;2023-08-07T05:20:03;14.40;;;4.10;;
12958;SDS011;6544;51.666;6.634;2023-08-07T05:22:32;14.88;;;4.20;;
12958;SDS011;6544;51.666;6.634;2023-08-07T05:24:59;14.35;;;4.10;;
12958;SDS011;6544;51.666;6.634;2023-08-07T05:27:26;12.77;;;4.15;;
12958;SDS011;6544;51.666;6.634;2023-08-07T05:29:54;10.50;;;3.78;;
12958;SDS011;6544;51.666;6.634;2023-08-07T05:32:21;12.63;;;4.00;;
12958;SDS011;6544;51.666;6.634;2023-08-07T05:34:47;8.52;;;3.80;;
12958;SDS011;6544;51.666;6.634;2023-08-07T05:37:15;16.05;;;4.30;;
12958;SDS011;6544;51.666;6.634;2023-08-07T05:39:43;13.15;;;3.70;;
12958;SDS011;6544;51.666;6.634;2023-08-07T05:42:11;12.60;;;3.63;;
12958;SDS011;6544;51.666;6.634;2023-08-07T05:44:38;12.63;;;4.18;;
12958;SDS011;6544;51.666;6.634;2023-08-07T05:47:05;13.43;;;4.22;;
12958;SDS011;6544;51.666;6.634;2023-08-07T05:49:32;9.45;;;3.85;;
12958;SDS011;6544;51.666;6.634;2023-08-07T05:52:07;11.30;;;3.83;;
12958;SDS011;6544;51.666;6.634;2023-08-07T05:54:34;7.80;;;3.65;;
12958;SDS011;6544;51.666;6.634;2023-08-07T05:57:02;10.63;;;3.58;;
12958;SDS011;6544;51.666;6.634;2023-08-07T05:59:30;11.40;;;3.75;;
12958;SDS011;6544;51.666;6.634;2023-08-07T06:01:56;7.95;;;3.60;;
12958;SDS011;6544;51.666;6.634;2023-08-07T06:04:24;12.23;;;3.78;;
12958;SDS011;6544;51.666;6.634;2023-08-07T06:06:51;12.85;;;3.85;;
12958;SDS011;6544;51.666;6.634;2023-08-07T06:09:17;14.05;;;3.40;;
12958;SDS011;6544;51.666;6.634;2023-08-07T06:11:46;9.07;;;3.25;;
12958;SDS011;6544;51.666;6.634;2023-08-07T06:14:14;10.55;;;3.35;;
12958;SDS011;6544;51.666;6.634;2023-08-07T06:16:41;8.50;;;3.08;;
12958;SDS011;6544;51.666;6.634;2023-08-07T06:19:08;7.40;;;3.30;;
12958;SDS011;6544;51.666;6.634;2023-08-07T06:21:35;9.85;;;3.40;;
12958;SDS011;6544;51.666;6.634;2023-08-07T06:24:02;13.45;;;3.72;;
12958;SDS011;6544;51.666;6.634;2023-08-07T06:26:29;7.97;;;3.35;;
12958;SDS011;6544;51.666;6.634;2023-08-07T06:28:56;8.57;;;3.10;;
12958;SDS011;6544;51.666;6.634;2023-08-07T06:31:24;7.50;;;3.10;;
12958;SDS011;6544;51.666;6.634;2023-08-07T06:33:51;10.95;;;3.20;;
12958;SDS011;6544;51.666;6.634;2023-08-07T06:36:18;10.13;;;3.75;;
12958;SDS011;6544;51.666;6.634;2023-08-07T06:38:45;8.95;;;3.72;;
12958;SDS011;6544;51.666;6.634;2023-08-07T06:41:12;9.23;;;3.60;;
12958;SDS011;6544;51.666;6.634;2023-08-07T06:43:38;11.52;;;3.95;;
12958;SDS011;6544;51.666;6.634;2023-08-07T06:46:05;9.32;;;3.97;;
12958;SDS011;6544;51.666;6.634;2023-08-07T06:48:33;11.52;;;4.10;;
12958;SDS011;6544;51.666;6.634;2023-08-07T06:51:00;12.57;;;4.18;;
12958;SDS011;6544;51.666;6.634;2023-08-07T06:53:27;10.43;;;3.70;;
12958;SDS011;6544;51.666;6.634;2023-08-07T06:55:54;8.98;;;3.65;;
12958;SDS011;6544;51.666;6.634;2023-08-07T06:58:21;12.82;;;3.92;;
12958;SDS011;6544;51.666;6.634;2023-08-07T07:00:48;11.52;;;4.07;;
12958;SDS011;6544;51.666;6.634;2023-08-07T07:03:15;12.02;;;4.00;;
12958;SDS011;6544;51.666;6.634;2023-08-07T07:05:43;8.43;;;3.85;;
12958;SDS011;6544;51.666;6.634;2023-08-07T07:08:10;11.20;;;4.72;;
12958;SDS011;6544;51.666;6.634;2023-08-07T07:10:37;13.95;;;4.60;;
12958;SDS011;6544;51.666;6.634;2023-08-07T07:13:04;11.45;;;4.53;;
12958;SDS011;6544;51.666;6.634;2023-08-07T07:15:33;11.50;;;3.92;;
12958;SDS011;6544;51.666;6.634;2023-08-07T07:18:00;13.65;;;4.13;;
12958;SDS011;6544;51.666;6.634;2023-08-07T07:20:27;9.98;;;4.03;;
12958;SDS011;6544;51.666;6.634;2023-08-07T07:22:55;15.93;;;4.20;;
12958;SDS011;6544;51.666;6.634;2023-08-07T07:25:22;14.02;;;4.00;;
12958;SDS011;6544;51.666;6.634;2023-08-07T07:27:49;10.38;;;4.03;;
12958;SDS011;6544;51.666;6.634;2023-08-07T07:30:16;18.52;;;4.90;;
12958;SDS011;6544;51.666;6.634;2023-08-07T07:32:43;11.82;;;4.25;;
12958;SDS011;6544;51.666;6.634;2023-08-07T07:35:10;12.55;;;3.88;;
12958;SDS011;6544;51.666;6.634;2023-08-07T07:37:37;12.68;;;3.63;;
12958;SDS011;6544;51.666;6.634;2023-08-07T07:40:06;12.93;;;4.60;;
12958;SDS011;6544;51.666;6.634;2023-08-07T07:42:33;14.65;;;4.53;;
12958;SDS011;6544;51.666;6.634;2023-08-07T07:45:00;16.50;;;4.20;;
12958;SDS011;6544;51.666;6.634;2023-08-07T07:47:27;11.52;;;4.13;;
12958;SDS011;6544;51.666;6.634;2023-08-07T07:50:04;16.98;;;4.68;;
12958;SDS011;6544;51.666;6.634;2023-08-07T07:52:32;13.02;;;4.35;;
12958;SDS011;6544;51.666;6.634;2023-08-07T07:54:59;12.55;;;4.68;;
12958;SDS011;6544;51.666;6.634;2023-08-07T07:57:27;13.23;;;4.55;;
12958;SDS011;6544;51.666;6.634;2023-08-07T07:59:54;11.15;;;4.38;;
12958;SDS011;6544;51.666;6.634;2023-08-07T08:02:21;10.95;;;3.70;;
12958;SDS011;6544;51.666;6.634;2023-08-07T08:04:49;12.30;;;4.10;;
12958;SDS011;6544;51.666;6.634;2023-08-07T08:07:17;14.35;;;4.07;;
12958;SDS011;6544;51.666;6.634;2023-08-07T08:09:44;17.75;;;5.68;;
12958;SDS011;6544;51.666;6.634;2023-08-07T08:12:12;13.27;;;3.75;;
12958;SDS011;6544;51.666;6.634;2023-08-07T08:14:40;13.25;;;3.80;;
12958;SDS011;6544;51.666;6.634;2023-08-07T08:17:07;14.48;;;4.32;;
12958;SDS011;6544;51.666;6.634;2023-08-07T08:19:34;18.02;;;4.63;;
12958;SDS011;6544;51.666;6.634;2023-08-07T08:22:01;12.95;;;3.72;;
12958;SDS011;6544;51.666;6.634;2023-08-07T08:24:28;15.38;;;4.13;;
12958;SDS011;6544;51.666;6.634;2023-08-07T08:26:56;13.65;;;3.85;;
12958;SDS011;6544;51.666;6.634;2023-08-07T08:29:23;11.40;;;3.80;;
12958;SDS011;6544;51.666;6.634;2023-08-07T08:31:53;13.95;;;3.70;;
12958;SDS011;6544;51.666;6.634;2023-08-07T08:34:20;16.30;;;4.47;;
12958;SDS011;6544;51.666;6.634;2023-08-07T08:36:47;11.75;;;3.92;;
12958;SDS011;6544;51.666;6.634;2023-08-07T08:39:14;12.82;;;3.70;;
12958;SDS011;6544;51.666;6.634;2023-08-07T08:41:41;18.50;;;3.83;;
12958;SDS011;6544;51.666;6.634;2023-08-07T08:44:12;15.02;;;3.45;;
12958;SDS011;6544;51.666;6.634;2023-08-07T08:46:40;14.43;;;4.32;;
12958;SDS011;6544;51.666;6.634;2023-08-07T08:49:10;14.93;;;4.18;;
12958;SDS011;6544;51.666;6.634;2023-08-07T08:51:38;16.90;;;3.58;;
12958;SDS011;6544;51.666;6.634;2023-08-07T08:54:05;13.38;;;3.72;;
12958;SDS011;6544;51.666;6.634;2023-08-07T08:56:32;11.30;;;3.70;;
12958;SDS011;6544;51.666;6.634;2023-08-07T08:59:00;10.25;;;3.50;;
12958;SDS011;6544;51.666;6.634;2023-08-07T09:01:27;11.75;;;3.10;;
12958;SDS011;6544;51.666;6.634;2023-08-07T09:03:55;9.25;;;3.65;;
12958;SDS011;6544;51.666;6.634;2023-08-07T09:06:24;13.65;;;3.20;;
12958;SDS011;6544;51.666;6.634;2023-08-07T09:08:53;10.48;;;3.55;;
12958;SDS011;6544;51.666;6.634;2023-08-07T09:11:21;11.07;;;3.75;;
12958;SDS011;6544;51.666;6.634;2023-08-07T09:13:48;10.23;;;3.30;;
12958;SDS011;6544;51.666;6.634;2023-08-07T09:16:15;8.50;;;3.50;;
12958;SDS011;6544;51.666;6.634;2023-08-07T09:18:43;8.75;;;3.25;;
12958;SDS011;6544;51.666;6.634;2023-08-07T09:21:10;7.65;;;3.05;;
12958;SDS011;6544;51.666;6.634;2023-08-07T09:23:42;11.70;;;3.58;;
12958;SDS011;6544;51.666;6.634;2023-08-07T09:26:09;10.60;;;3.10;;
12958;SDS011;6544;51.666;6.634;2023-08-07T09:28:37;10.52;;;3.88;;
12958;SDS011;6544;51.666;6.634;2023-08-07T09:31:05;8.70;;;3.45;;
12958;SDS011;6544;51.666;6.634;2023-08-07T09:33:34;10.00;;;3.33;;
12958;SDS011;6544;51.666;6.634;2023-08-07T09:36:01;11.43;;;3.30;;
12958;SDS011;6544;51.666;6.634;2023-08-07T09:38:29;10.77;;;3.45;;
12958;SDS011;6544;51.666;6.634;2023-08-07T09:40:59;12.30;;;3.80;;
12958;SDS011;6544;51.666;6.634;2023-08-07T09:43:28;7.85;;;3.83;;
12958;SDS011;6544;51.666;6.634;2023-08-07T09:46:01;8.18;;;3.63;;
12958;SDS011;6544;51.666;6.634;2023-08-07T09:48:28;10.93;;;3.80;;
12958;SDS011;6544;51.666;6.634;2023-08-07T09:50:59;10.82;;;4.03;;
12958;SDS011;6544;51.666;6.634;2023-08-07T09:53:29;9.10;;;3.42;;
12958;SDS011;6544;51.666;6.634;2023-08-07T09:55:56;13.25;;;3.88;;
12958;SDS011;6544;51.666;6.634;2023-08-07T09:58:25;13.90;;;3.95;;
12958;SDS011;6544;51.666;6.634;2023-08-07T10:00:52;13.30;;;4.03;;
12958;SDS011;6544;51.666;6.634;2023-08-07T10:03:20;9.48;;;3.50;;
12958;SDS011;6544;51.666;6.634;2023-08-07T10:05:48;12.20;;;3.40;;
12958;SDS011;6544;51.666;6.634;2023-08-07T10:08:15;12.48;;;3.35;;
12958;SDS011;6544;51.666;6.634;2023-08-07T10:10:42;16.85;;;3.58;;
12958;SDS011;6544;51.666;6.634;2023-08-07T10:13:11;14.05;;;3.70;;
12958;SDS011;6544;51.666;6.634;2023-08-07T10:15:39;9.93;;;3.35;;
12958;SDS011;6544;51.666;6.634;2023-08-07T10:18:07;12.45;;;3.70;;
12958;SDS011;6544;51.666;6.634;2023-08-07T10:20:34;10.20;;;3.40;;
12958;SDS011;6544;51.666;6.634;2023-08-07T10:23:04;11.95;;;3.03;;
12958;SDS011;6544;51.666;6.634;2023-08-07T10:25:34;10.75;;;3.72;;
12958;SDS011;6544;51.666;6.634;2023-08-07T10:28:03;15.13;;;3.97;;
12958;SDS011;6544;51.666;6.634;2023-08-07T10:30:33;8.57;;;2.95;;
12958;SDS011;6544;51.666;6.634;2023-08-07T10:33:01;10.55;;;3.42;;
12958;SDS011;6544;51.666;6.634;2023-08-07T10:35:30;14.10;;;3.13;;
12958;SDS011;6544;51.666;6.634;2023-08-07T10:38:04;8.88;;;3.00;;
12958;SDS011;6544;51.666;6.634;2023-08-07T10:40:33;11.82;;;3.10;;
12958;SDS011;6544;51.666;6.634;2023-08-07T10:43:11;10.65;;;3.15;;
12958;SDS011;6544;51.666;6.634;2023-08-07T10:45:40;10.60;;;3.08;;
12958;SDS011;6544;51.666;6.634;2023-08-07T10:48:07;9.05;;;3.17;;
12958;SDS011;6544;51.666;6.634;2023-08-07T10:50:46;8.10;;;2.80;;
12958;SDS011;6544;51.666;6.634;2023-08-07T10:53:19;8.77;;;2.97;;
12958;SDS011;6544;51.666;6.634;2023-08-07T10:55:49;8.73;;;3.08;;
12958;SDS011;6544;51.666;6.634;2023-08-07T10:58:23;8.77;;;2.60;;
12958;SDS011;6544;51.666;6.634;2023-08-07T11:00:52;10.85;;;2.72;;
12958;SDS011;6544;51.666;6.634;2023-08-07T11:03:48;10.27;;;2.85;;
12958;SDS011;6544;51.666;6.634;2023-08-07T11:06:17;11.18;;;2.72;;
12958;SDS011;6544;51.666;6.634;2023-08-07T11:08:47;6.18;;;2.22;;
12958;SDS011;6544;51.666;6.634;2023-08-07T11:11:15;7.00;;;2.60;;
12958;SDS011;6544;51.666;6.634;2023-08-07T11:13:42;7.85;;;2.70;;
12958;SDS011;6544;51.666;6.634;2023-08-07T11:16:10;8.90;;;2.67;;
12958;SDS011;6544;51.666;6.634;2023-08-07T11:18:38;8.02;;;3.33;;
12958;SDS011;6544;51.666;6.634;2023-08-07T11:21:06;10.77;;;2.60;;
12958;SDS011;6544;51.666;6.634;2023-08-07T11:23:35;9.15;;;2.80;;
12958;SDS011;6544;51.666;6.634;2023-08-07T11:26:02;7.05;;;2.70;;
12958;SDS011;6544;51.666;6.634;2023-08-07T11:28:30;7.97;;;2.50;;
12958;SDS011;6544;51.666;6.634;2023-08-07T11:30:57;7.55;;;2.90;;
12958;SDS011;6544;51.666;6.634;2023-08-07T11:33:27;6.65;;;2.40;;
12958;SDS011;6544;51.666;6.634;2023-08-07T11:35:55;8.90;;;2.30;;
12958;SDS011;6544;51.666;6.634;2023-08-07T11:38:31;7.15;;;2.47;;
12958;SDS011;6544;51.666;6.634;2023-08-07T11:41:00;7.88;;;2.72;;
12958;SDS011;6544;51.666;6.634;2023-08-07T11:43:28;8.43;;;2.72;;
12958;SDS011;6544;51.666;6.634;2023-08-07T11:45:56;8.10;;;2.90;;
12958;SDS011;6544;51.666;6.634;2023-08-07T11:48:23;8.52;;;2.58;;
12958;SDS011;6544;51.666;6.634;2023-08-07T11:50:52;11.40;;;3.13;;
12958;SDS011;6544;51.666;6.634;2023-08-07T11:53:20;8.20;;;2.40;;
12958;SDS011;6544;51.666;6.634;2023-08-07T11:55:47;6.20;;;2.67;;
12958;SDS011;6544;51.666;6.634;2023-08-07T11:58:18;7.72;;;2.72;;
12958;SDS011;6544;51.666;6.634;2023-08-07T12:00:46;10.57;;;2.92;;
12958;SDS011;6544;51.666;6.634;2023-08-07T12:03:23;8.07;;;2.83;;
12958;SDS011;6544;51.666;6.634;2023-08-07T12:05:53;10.00;;;2.85;;
12958;SDS011;6544;51.666;6.634;2023-08-07T12:08:21;12.80;;;3.08;;
12958;SDS011;6544;51.666;6.634;2023-08-07T12:10:49;11.07;;;2.75;;
12958;SDS011;6544;51.666;6.634;2023-08-07T12:13:19;12.65;;;2.63;;
12958;SDS011;6544;51.666;6.634;2023-08-07T12:15:49;6.85;;;2.53;;
12958;SDS011;6544;51.666;6.634;2023-08-07T12:18:18;9.05;;;2.47;;
12958;SDS011;6544;51.666;6.634;2023-08-07T12:20:47;6.47;;;2.40;;
12958;SDS011;6544;51.666;6.634;2023-08-07T12:23:15;6.55;;;2.30;;
12958;SDS011;6544;51.666;6.634;2023-08-07T12:25:43;5.57;;;1.95;;
12958;SDS011;6544;51.666;6.634;2023-08-07T12:28:10;6.53;;;2.30;;
12958;SDS011;6544;51.666;6.634;2023-08-07T12:30:37;5.25;;;1.90;;
12958;SDS011;6544;51.666;6.634;2023-08-07T12:33:04;5.47;;;1.98;;
12958;SDS011;6544;51.666;6.634;2023-08-07T12:35:32;5.68;;;2.25;;
12958;SDS011;6544;51.666;6.634;2023-08-07T12:38:02;6.18;;;2.22;;
12958;SDS011;6544;51.666;6.634;2023-08-07T12:40:30;6.10;;;2.22;;
12958;SDS011;6544;51.666;6.634;2023-08-07T12:42:57;7.55;;;2.25;;
12958;SDS011;6544;51.666;6.634;2023-08-07T12:45:25;6.05;;;2.50;;
12958;SDS011;6544;51.666;6.634;2023-08-07T12:47:52;11.02;;;2.30;;
12958;SDS011;6544;51.666;6.634;2023-08-07T12:50:18;8.07;;;2.00;;
12958;SDS011;6544;51.666;6.634;2023-08-07T12:52:46;5.50;;;2.08;;
12958;SDS011;6544;51.666;6.634;2023-08-07T12:55:14;8.73;;;2.53;;
12958;SDS011;6544;51.666;6.634;2023-08-07T12:57:41;5.93;;;2.53;;
12958;SDS011;6544;51.666;6.634;2023-08-07T13:00:09;8.35;;;2.65;;
12958;SDS011;6544;51.666;6.634;2023-08-07T13:02:40;14.07;;;2.70;;
12958;SDS011;6544;51.666;6.634;2023-08-07T13:05:07;5.95;;;2.20;;
12958;SDS011;6544;51.666;6.634;2023-08-07T13:07:35;4.90;;;2.20;;
12958;SDS011;6544;51.666;6.634;2023-08-07T13:10:03;8.55;;;2.40;;
12958;SDS011;6544;51.666;6.634;2023-08-07T13:12:33;7.70;;;2.80;;
12958;SDS011;6544;51.666;6.634;2023-08-07T13:15:01;6.85;;;2.50;;
12958;SDS011;6544;51.666;6.634;2023-08-07T13:17:28;9.60;;;2.60;;
12958;SDS011;6544;51.666;6.634;2023-08-07T13:19:55;5.78;;;2.50;;
12958;SDS011;6544;51.666;6.634;2023-08-07T13:22:22;6.18;;;1.90;;
12958;SDS011;6544;51.666;6.634;2023-08-07T13:24:49;5.78;;;2.13;;
12958;SDS011;6544;51.666;6.634;2023-08-07T13:27:16;7.57;;;2.17;;
12958;SDS011;6544;51.666;6.634;2023-08-07T13:29:44;6.55;;;2.40;;
12958;SDS011;6544;51.666;6.634;2023-08-07T13:32:11;5.43;;;2.20;;
12958;SDS011;6544;51.666;6.634;2023-08-07T13:34:43;6.25;;;2.47;;
12958;SDS011;6544;51.666;6.634;2023-08-07T13:37:10;5.25;;;2.00;;
12958;SDS011;6544;51.666;6.634;2023-08-07T13:39:37;4.88;;;2.05;;
12958;SDS011;6544;51.666;6.634;2023-08-07T13:42:04;4.25;;;2.08;;
12958;SDS011;6544;51.666;6.634;2023-08-07T13:44:32;5.28;;;2.10;;
12958;SDS011;6544;51.666;6.634;2023-08-07T13:47:00;6.60;;;2.03;;
12958;SDS011;6544;51.666;6.634;2023-08-07T13:49:27;6.20;;;2.22;;
12958;SDS011;6544;51.666;6.634;2023-08-07T13:51:54;9.80;;;2.65;;
12958;SDS011;6544;51.666;6.634;2023-08-07T13:54:21;8.40;;;2.10;;
12958;SDS011;6544;51.666;6.634;2023-08-07T13:56:48;5.05;;;2.15;;
12958;SDS011;6544;51.666;6.634;2023-08-07T13:59:15;8.80;;;2.40;;
12958;SDS011;6544;51.666;6.634;2023-08-07T14:01:42;4.55;;;2.00;;
12958;SDS011;6544;51.666;6.634;2023-08-07T14:04:10;7.60;;;2.60;;
12958;SDS011;6544;51.666;6.634;2023-08-07T14:06:39;9.48;;;2.28;;
12958;SDS011;6544;51.666;6.634;2023-08-07T14:09:07;5.78;;;2.17;;
12958;SDS011;6544;51.666;6.634;2023-08-07T14:11:34;4.60;;;2.03;;
12958;SDS011;6544;51.666;6.634;2023-08-07T14:14:01;9.30;;;2.22;;
12958;SDS011;6544;51.666;6.634;2023-08-07T14:16:28;8.30;;;2.40;;
12958;SDS011;6544;51.666;6.634;2023-08-07T14:18:56;9.18;;;2.40;;
12958;SDS011;6544;51.666;6.634;2023-08-07T14:21:24;5.03;;;2.08;;
12958;SDS011;6544;51.666;6.634;2023-08-07T14:23:51;6.20;;;2.00;;
12958;SDS011;6544;51.666;6.634;2023-08-07T14:26:18;6.57;;;2.33;;
12958;SDS011;6544;51.666;6.634;2023-08-07T14:28:45;8.98;;;2.47;;
12958;SDS011;6544;51.666;6.634;2023-08-07T14:31:12;7.00;;;2.13;;
12958;SDS011;6544;51.666;6.634;2023-08-07T14:33:39;6.80;;;2.28;;
12958;SDS011;6544;51.666;6.634;2023-08-07T14:36:06;8.02;;;2.42;;
12958;SDS011;6544;51.666;6.634;2023-08-07T14:38:34;7.53;;;2.20;;
12958;SDS011;6544;51.666;6.634;2023-08-07T14:41:01;5.28;;;2.22;;
12958;SDS011;6544;51.666;6.634;2023-08-07T14:43:29;5.53;;;1.75;;
12958;SDS011;6544;51.666;6.634;2023-08-07T14:45:56;8.00;;;2.20;;
12958;SDS011;6544;51.666;6.634;2023-08-07T14:48:23;4.07;;;1.88;;
12958;SDS011;6544;51.666;6.634;2023-08-07T14:50:50;5.05;;;2.08;;
12958;SDS011;6544;51.666;6.634;2023-08-07T14:53:17;5.20;;;1.92;;
12958;SDS011;6544;51.666;6.634;2023-08-07T14:55:46;4.43;;;2.15;;
12958;SDS011;6544;51.666;6.634;2023-08-07T14:58:12;5.85;;;2.10;;